Time;durP1;ratioP1;P1;durP2;ratioP2;P2;SDS_P1;SDS_P2;PMS_P1;PMS_P2;Temp;Humidity;BMP_temperature;BMP_pressure;BME280_temperature;BME280_humidity;BME280_pressure;Samples;Min_cycle;Max_cycle;Signal;HPM_P1;HPM_P2
2022/07/05 00:01:47;;;;;;;10.95;2.28;;;;;;;24.13;47.81;98995.41;4954338;29;20027;-50
2022/07/05 00:04:13;;;;;;;9.52;2.17;;;;;;;24.36;47.61;98989.56;4954361;29;20023;-49
2022/07/05 00:07:17;;;;;;;11.07;2.15;;;;;;;24.63;47.45;98989.03;4954286;29;20035;-50
2022/07/05 00:09:28;;;;;;;5.75;1.67;;;;;;;24.79;46.62;98989.66;4954187;29;20517;-49
2022/07/05 00:11:54;;;;;;;6.18;1.50;;;;;;;24.74;46.10;99001.28;4968969;28;20042;-50
2022/07/05 00:14:19;;;;;;;6.05;1.27;;;;;;;24.58;46.05;98997.97;4952948;29;20382;-49
2022/07/05 00:16:45;;;;;;;4.00;1.30;;;;;;;24.43;46.08;99001.59;4954331;28;20035;-50
2022/07/05 00:19:11;;;;;;;6.05;1.17;;;;;;;24.35;46.68;98999.53;4952811;29;20107;-50
2022/07/05 00:21:37;;;;;;;12.02;2.33;;;;;;;24.38;46.78;99003.50;4954448;28;20035;-50
2022/07/05 00:24:02;;;;;;;7.78;1.50;;;;;;;24.54;46.68;99001.50;4954028;29;20023;-49
2022/07/05 00:26:29;;;;;;;10.63;2.03;;;;;;;24.58;46.49;98997.97;4954014;29;20409;-50
2022/07/05 00:28:54;;;;;;;13.55;2.55;;;;;;;24.58;46.08;99005.22;4952688;29;20538;-50
2022/07/05 00:31:20;;;;;;;10.13;2.20;;;;;;;24.52;46.56;98996.41;4952623;29;20023;-50
2022/07/05 00:33:46;;;;;;;14.98;2.60;;;;;;;24.47;46.44;98997.25;4951640;28;20094;-50
2022/07/05 00:36:11;;;;;;;4.75;1.60;;;;;;;24.37;46.46;99000.03;4953900;29;20094;-50
2022/07/05 00:38:37;;;;;;;7.35;2.22;;;;;;;24.22;46.94;99002.84;4953819;28;20035;-48
2022/07/05 00:41:03;;;;;;;7.43;2.05;;;;;;;24.19;47.07;98992.69;4953792;28;20494;-50
2022/07/05 00:43:29;;;;;;;6.45;1.60;;;;;;;24.11;47.16;98991.44;4953840;29;20027;-49
2022/07/05 00:45:54;;;;;;;10.20;2.22;;;;;;;24.08;47.36;98995.44;4953732;28;20051;-50
2022/07/05 00:48:20;;;;;;;14.70;2.30;;;;;;;24.12;47.50;98996.47;4952479;29;20035;-50
2022/07/05 00:50:46;;;;;;;18.48;2.60;;;;;;;24.13;47.41;98994.63;4953733;28;20114;-50
2022/07/05 00:53:12;;;;;;;14.90;1.98;;;;;;;24.21;47.11;98993.22;4953727;28;20035;-50
2022/07/05 00:55:38;;;;;;;13.75;2.05;;;;;;;24.22;47.07;99000.97;4952404;29;20441;-50
2022/07/05 00:58:04;;;;;;;12.00;2.20;;;;;;;24.23;47.23;98999.09;4953571;29;20035;-49
2022/07/05 01:00:29;;;;;;;7.57;1.92;;;;;;;24.33;47.33;98997.13;4952320;29;20028;-50
2022/07/05 01:02:55;;;;;;;15.77;2.17;;;;;;;24.43;46.98;98995.44;4952355;29;20027;-50
2022/07/05 01:05:22;;;;;;;11.65;2.22;;;;;;;24.52;46.95;98993.72;4952306;29;20605;-50
2022/07/05 01:07:48;;;;;;;14.70;2.28;;;;;;;24.55;46.67;99000.41;4953591;28;20071;-50
2022/07/05 01:10:13;;;;;;;14.50;1.98;;;;;;;24.46;46.90;98995.63;4952264;29;20031;-50
2022/07/05 01:12:40;;;;;;;13.60;2.22;;;;;;;24.41;47.14;98990.34;4953524;28;20031;-50
2022/07/05 01:15:07;;;;;;;5.95;1.85;;;;;;;24.42;47.28;98991.91;4953435;28;20038;-50
2022/07/05 01:17:36;;;;;;;6.53;1.50;;;;;;;24.45;47.06;98988.69;4953459;28;20499;-49
2022/07/05 01:20:07;;;;;;;6.35;1.60;;;;;;;24.37;47.10;99001.91;4953457;28;20150;-50
2022/07/05 01:22:55;;;;;;;18.13;2.28;;;;;;;24.31;47.64;98999.28;4952235;29;20039;-50
2022/07/05 01:25:24;;;;;;;10.10;2.00;;;;;;;24.24;47.66;98998.00;4952144;29;20031;-50
2022/07/05 01:27:50;;;;;;;8.90;1.75;;;;;;;24.22;47.87;99008.22;4953376;28;20031;-49
2022/07/05 01:30:16;;;;;;;13.52;2.28;;;;;;;24.27;47.91;99005.50;4953434;28;20055;-50
2022/07/05 01:32:43;;;;;;;12.00;2.28;;;;;;;24.26;48.15;99006.56;4952100;29;20526;-50
2022/07/05 01:35:10;;;;;;;12.35;2.17;;;;;;;24.40;47.85;98996.78;4953180;28;20572;-49
2022/07/05 01:37:37;;;;;;;8.48;2.45;;;;;;;24.50;47.51;99007.44;4953246;28;20024;-50
2022/07/05 01:40:04;;;;;;;5.13;1.70;;;;;;;24.54;47.61;99006.88;4968120;28;20390;-50
2022/07/05 01:42:29;;;;;;;8.60;1.85;;;;;;;24.46;47.39;99006.38;4953322;29;20401;-50
2022/07/05 01:44:55;;;;;;;9.07;2.20;;;;;;;24.30;48.18;99004.91;4953764;28;20031;-50
2022/07/05 01:47:21;;;;;;;4.97;1.60;;;;;;;24.28;48.10;99013.25;4955535;29;20023;-50
2022/07/05 01:49:49;;;;;;;10.82;2.00;;;;;;;24.30;48.33;99012.97;4957037;28;20027;-50
2022/07/05 01:52:17;;;;;;;5.63;1.98;;;;;;;24.26;48.01;99015.41;4955436;29;20515;-49
2022/07/05 01:54:43;;;;;;;7.30;2.00;;;;;;;24.05;48.37;99020.16;4955370;29;20043;-49
2022/07/05 01:57:09;;;;;;;8.85;1.58;;;;;;;23.86;48.88;99019.22;4956604;28;20297;-50
2022/07/05 01:59:36;;;;;;;8.70;1.70;;;;;;;23.75;48.99;99015.81;4956627;28;20482;-49
2022/07/05 02:02:04;;;;;;;9.35;2.47;;;;;;;23.61;49.75;99022.88;4955282;29;20497;-49
2022/07/05 02:04:31;;;;;;;12.88;2.30;;;;;;;23.50;49.88;99022.94;4955232;29;20031;-49
2022/07/05 02:06:57;;;;;;;8.38;1.80;;;;;;;23.49;50.21;99024.00;4955142;29;20031;-49
2022/07/05 02:09:23;;;;;;;7.43;1.80;;;;;;;23.53;49.96;99032.28;4955157;29;20027;-50
2022/07/05 02:11:48;;;;;;;9.13;2.22;;;;;;;23.67;49.99;99025.22;4955013;29;20110;-49
2022/07/05 02:14:14;;;;;;;9.85;2.10;;;;;;;23.79;49.72;99027.59;4955099;29;20118;-50
2022/07/05 02:16:40;;;;;;;14.50;2.05;;;;;;;23.73;49.83;99021.44;4956227;28;20509;-50
2022/07/05 02:19:06;;;;;;;9.63;1.90;;;;;;;23.61;49.86;99031.69;4954955;29;20122;-50
2022/07/05 02:21:31;;;;;;;7.80;1.85;;;;;;;23.54;50.58;99023.16;4954885;29;20030;-50
2022/07/05 02:23:58;;;;;;;8.20;2.10;;;;;;;23.61;50.21;99020.19;4956186;29;20023;-50
2022/07/05 02:26:23;;;;;;;7.82;2.30;;;;;;;23.72;50.37;99017.16;4956135;28;20177;-50
2022/07/05 02:28:50;;;;;;;11.48;2.20;;;;;;;24.03;49.70;99018.84;4956051;29;20532;-49
2022/07/05 02:31:16;;;;;;;13.27;3.22;;;;;;;24.03;49.32;99025.00;4954776;29;20031;-50
2022/07/05 02:33:42;;;;;;;6.35;2.38;;;;;;;23.80;49.58;99028.38;4955787;29;20501;-50
2022/07/05 02:36:11;;;;;;;5.72;2.00;;;;;;;23.65;50.14;99030.06;4954686;29;20039;-50
2022/07/05 02:38:38;;;;;;;16.77;2.60;;;;;;;23.57;50.36;99022.63;4955854;28;20501;-50
2022/07/05 02:41:08;;;;;;;10.02;2.05;;;;;;;23.55;50.35;99032.03;4955924;28;20027;-49
2022/07/05 02:43:34;;;;;;;10.50;2.33;;;;;;;23.45;50.79;99035.56;4954497;29;20028;-50
2022/07/05 02:46:01;;;;;;;10.02;2.25;;;;;;;23.41;50.78;99034.50;4954544;29;20026;-50
2022/07/05 02:48:27;;;;;;;12.90;2.10;;;;;;;23.34;51.21;99040.16;4955693;28;20454;-50
2022/07/05 02:50:53;;;;;;;9.93;2.20;;;;;;;23.27;51.18;99037.78;4955677;28;20024;-50
2022/07/05 02:53:19;;;;;;;12.13;2.53;;;;;;;23.26;51.54;99035.38;4955678;29;20035;-49
2022/07/05 02:55:44;;;;;;;7.18;2.58;;;;;;;23.26;51.40;99035.38;4955505;29;20509;-50
2022/07/05 02:58:10;;;;;;;13.55;2.30;;;;;;;23.30;51.37;99031.88;4954685;28;20031;-49
2022/07/05 03:00:36;;;;;;;7.18;1.95;;;;;;;23.33;51.19;99036.66;4954203;29;20059;-50
2022/07/05 03:03:01;;;;;;;10.75;2.03;;;;;;;23.33;51.69;99039.34;4955429;28;20034;-49
2022/07/05 03:05:28;;;;;;;6.90;1.88;;;;;;;23.29;51.62;99042.88;4955408;29;20102;-49
2022/07/05 03:07:53;;;;;;;3.97;1.70;;;;;;;23.12;51.51;99040.53;4955450;28;20055;-50
2022/07/05 03:10:19;;;;;;;12.93;2.03;;;;;;;22.89;52.00;99045.38;4954033;29;20537;-50
2022/07/05 03:12:45;;;;;;;11.73;2.40;;;;;;;22.72;52.73;99044.91;4955285;29;20035;-50
2022/07/05 03:15:10;;;;;;;9.65;1.80;;;;;;;22.65;52.94;99044.38;4955228;29;20019;-49
2022/07/05 03:17:36;;;;;;;10.65;2.83;;;;;;;22.60;52.67;99042.53;4955106;28;20425;-49
2022/07/05 03:20:02;;;;;;;13.02;2.22;;;;;;;22.57;52.94;99051.06;4954137;29;20405;-49
2022/07/05 03:22:28;;;;;;;14.35;2.65;;;;;;;22.50;53.22;99047.91;4955065;28;20102;-49
2022/07/05 03:24:54;;;;;;;9.18;2.28;;;;;;;22.50;53.32;99048.69;4955102;28;20518;-49
2022/07/05 03:27:19;;;;;;;11.98;2.80;;;;;;;22.43;53.46;99052.72;4955006;29;20032;-49
2022/07/05 03:29:45;;;;;;;11.32;2.88;;;;;;;22.36;53.92;99047.63;4954916;29;20034;-50
2022/07/05 03:32:11;;;;;;;12.30;1.92;;;;;;;22.40;53.98;99054.06;4954967;29;20027;-49
2022/07/05 03:34:38;;;;;;;16.10;2.10;;;;;;;22.54;53.88;99060.44;4954695;29;20083;-49
2022/07/05 03:37:04;;;;;;;5.88;1.80;;;;;;;22.63;53.64;99063.38;4954794;29;20366;-50
2022/07/05 03:39:30;;;;;;;6.05;2.13;;;;;;;22.57;53.25;99064.44;4954798;28;20494;-50
2022/07/05 03:41:56;;;;;;;9.13;1.88;;;;;;;22.53;53.35;99058.84;4937525;29;20031;-49
2022/07/05 03:44:21;;;;;;;9.88;2.10;;;;;;;22.43;53.42;99063.41;4954748;28;20078;-49
2022/07/05 03:46:47;;;;;;;10.40;1.98;;;;;;;22.50;53.93;99067.41;4953341;29;20031;-49
2022/07/05 03:49:13;;;;;;;6.72;1.73;;;;;;;22.52;53.85;99064.47;4954652;29;20023;-50
2022/07/05 03:51:38;;;;;;;8.48;2.00;;;;;;;22.46;53.54;99063.69;4953262;29;20058;-50
2022/07/05 03:54:04;;;;;;;11.75;2.33;;;;;;;22.39;53.30;99065.00;4954566;29;20059;-49
2022/07/05 03:56:30;;;;;;;9.68;2.00;;;;;;;22.30;54.16;99068.22;4953179;29;20023;-49
2022/07/05 03:58:56;;;;;;;9.48;2.22;;;;;;;22.40;54.17;99074.66;4953073;29;20565;-49
2022/07/05 04:01:22;;;;;;;12.50;2.13;;;;;;;22.57;53.82;99074.34;4954378;29;20489;-49
2022/07/05 04:03:48;;;;;;;4.88;1.70;;;;;;;22.57;53.11;99083.19;4954446;28;20077;-49
2022/07/05 04:06:13;;;;;;;3.38;1.73;;;;;;;22.51;53.39;99077.03;4954321;28;20023;-49
2022/07/05 04:08:39;;;;;;;13.98;1.83;;;;;;;22.42;53.21;99084.00;4952955;28;20053;-49
2022/07/05 04:11:06;;;;;;;7.97;2.08;;;;;;;22.34;53.25;99084.53;4953029;29;20393;-50
2022/07/05 04:13:31;;;;;;;10.50;1.77;;;;;;;22.31;53.27;99083.19;4952954;29;20031;-50
2022/07/05 04:15:57;;;;;;;11.07;1.67;;;;;;;22.27;53.50;99087.47;4954237;29;20027;-50
2022/07/05 04:18:23;;;;;;;8.80;2.13;;;;;;;22.26;53.44;99085.88;4952858;29;20034;-49
2022/07/05 04:20:48;;;;;;;7.75;2.03;;;;;;;22.25;53.29;99086.94;4954156;29;20019;-49
2022/07/05 04:23:15;;;;;;;7.25;2.22;;;;;;;22.27;53.33;99082.13;4954092;29;20090;-49
2022/07/05 04:25:40;;;;;;;10.75;2.00;;;;;;;22.31;53.23;99085.88;4952753;29;20019;-50
2022/07/05 04:28:06;;;;;;;6.40;1.60;;;;;;;22.38;52.97;99093.63;4952715;29;20039;-50
2022/07/05 04:30:32;;;;;;;6.03;1.40;;;;;;;22.79;52.60;99093.59;4953938;29;20055;-49
2022/07/05 04:32:58;;;;;;;7.75;2.20;;;;;;;23.57;51.01;99097.63;4953972;29;20023;-50
2022/07/05 04:35:24;;;;;;;5.90;1.38;;;;;;;24.30;48.84;99090.75;4953740;28;20035;-50
2022/07/05 04:37:49;;;;;;;8.38;1.70;;;;;;;24.84;47.40;99092.44;4952597;29;20074;-49
2022/07/05 04:40:16;;;;;;;3.13;1.30;;;;;;;25.31;45.97;99085.50;4953921;28;20027;-50
2022/07/05 04:42:41;;;;;;;5.07;1.35;;;;;;;25.68;45.22;99092.00;4953840;28;20027;-49
2022/07/05 04:45:08;;;;;;;11.75;1.70;;;;;;;25.86;44.56;99101.16;4953823;28;20449;-50
2022/07/05 04:47:34;;;;;;;8.80;1.90;;;;;;;25.90;44.63;99096.03;4953813;28;20027;-50
2022/07/05 04:50:01;;;;;;;7.20;2.70;;;;;;;26.00;44.44;99109.31;4953797;28;20441;-49
2022/07/05 04:52:27;;;;;;;11.15;1.73;;;;;;;26.23;44.19;99109.50;4952417;29;20023;-50
2022/07/05 04:54:54;;;;;;;7.00;1.60;;;;;;;26.66;43.36;99103.97;4953767;28;20047;-50
2022/07/05 04:57:19;;;;;;;8.73;2.20;;;;;;;27.27;42.07;99096.66;4953518;28;20506;-50
2022/07/05 04:59:46;;;;;;;11.27;2.00;;;;;;;28.02;40.56;99100.72;4953681;28;20023;-50
2022/07/05 05:02:12;;;;;;;18.05;2.13;;;;;;;28.47;39.60;99092.63;4953665;28;20075;-50
2022/07/05 05:04:37;;;;;;;19.63;2.55;;;;;;;28.79;38.80;99098.81;4953618;28;20023;-50
2022/07/05 05:07:04;;;;;;;16.15;2.92;;;;;;;29.33;38.01;99100.63;4953562;28;20032;-49
2022/07/05 05:09:29;;;;;;;13.15;2.65;;;;;;;29.49;37.32;99099.06;4952293;29;20027;-50
2022/07/05 05:11:55;;;;;;;31.77;3.70;;;;;;;29.97;37.01;99097.38;4953543;28;20425;-49
2022/07/05 05:14:21;;;;;;;23.27;3.65;;;;;;;30.69;35.58;99098.56;4953544;28;20054;-50
2022/07/05 05:16:47;;;;;;;15.32;1.90;;;;;;;31.26;34.86;99100.06;4953458;29;20110;-49
2022/07/05 05:19:13;;;;;;;12.85;2.25;;;;;;;31.54;34.08;99097.69;4952161;28;20637;-50
2022/07/05 05:21:39;;;;;;;16.52;2.45;;;;;;;31.69;33.48;99098.22;4956794;29;20043;-49
2022/07/05 05:24:05;;;;;;;11.68;1.98;;;;;;;31.87;33.00;99094.22;4956029;29;20054;-50
2022/07/05 05:26:31;;;;;;;8.65;2.15;;;;;;;31.93;32.73;99101.03;4955934;29;20043;-50
2022/07/05 05:28:56;;;;;;;7.35;1.88;;;;;;;32.13;32.43;99101.38;4957191;29;20043;-50
2022/07/05 05:31:22;;;;;;;13.88;2.25;;;;;;;32.47;31.94;99096.75;4957184;28;20098;-49
2022/07/05 05:33:48;;;;;;;11.75;2.33;;;;;;;32.64;31.04;99099.31;4956931;28;20401;-49
2022/07/05 05:36:14;;;;;;;12.20;2.13;;;;;;;32.84;31.27;99098.41;4955756;29;20030;-50
2022/07/05 05:38:39;;;;;;;10.15;2.55;;;;;;;33.06;30.41;99099.09;4956983;29;20503;-50
2022/07/05 05:41:05;;;;;;;5.80;1.83;;;;;;;33.43;29.83;99099.88;4956964;29;20102;-49
2022/07/05 05:43:31;;;;;;;8.75;1.95;;;;;;;33.56;29.84;99097.13;4956894;29;20516;-49
2022/07/05 05:45:57;;;;;;;8.10;2.00;;;;;;;33.79;29.34;99103.69;4955706;29;20024;-50
2022/07/05 05:48:22;;;;;;;9.98;1.60;;;;;;;33.99;28.57;99098.41;4955793;29;20038;-49
2022/07/05 05:50:49;;;;;;;7.13;1.70;;;;;;;34.13;28.40;99095.25;4955444;29;20023;-50
2022/07/05 05:53:14;;;;;;;11.45;1.80;;;;;;;34.28;28.10;99093.75;4956696;28;20025;-50
2022/07/05 05:55:43;;;;;;;6.13;1.75;;;;;;;34.55;27.34;99092.09;4955421;29;20031;-50
2022/07/05 05:58:16;;;;;;;14.73;1.65;;;;;;;34.78;27.44;99089.59;4956543;28;20110;-50
2022/07/05 06:00:43;;;;;;;8.65;1.75;;;;;;;34.97;26.80;99091.59;4956698;28;20106;-50
2022/07/05 06:03:09;;;;;;;12.57;2.00;;;;;;;35.23;26.18;99095.72;4956582;28;20024;-49
2022/07/05 06:05:35;;;;;;;7.85;1.38;;;;;;;35.30;25.80;99098.63;4955204;29;20042;-49
2022/07/05 06:08:00;;;;;;;14.43;1.80;;;;;;;35.38;26.15;99105.81;4956519;28;20023;-50
2022/07/05 06:10:32;;;;;;;17.27;2.15;;;;;;;35.74;25.94;99107.38;4955093;29;20028;-49
2022/07/05 06:12:59;;;;;;;6.25;1.73;;;;;;;36.32;25.06;99111.25;4956444;28;20065;-49
2022/07/05 06:15:26;;;;;;;5.93;1.40;;;;;;;36.40;24.66;99107.47;4955354;29;20024;-50
2022/07/05 06:17:51;;;;;;;6.60;1.23;;;;;;;36.30;25.11;99119.00;4954973;29;20126;-50
2022/07/05 06:20:22;;;;;;;10.82;2.40;;;;;;;36.57;24.92;99117.94;4956209;28;20447;-50
2022/07/05 06:22:50;;;;;;;12.48;1.65;;;;;;;37.05;24.43;99117.59;4956230;28;20401;-50
2022/07/05 06:25:16;;;;;;;6.75;1.67;;;;;;;37.46;23.63;99115.06;4956204;28;20083;-49
2022/07/05 06:27:44;;;;;;;7.68;1.40;;;;;;;37.79;22.78;99119.03;4956212;28;20086;-49
2022/07/05 06:30:13;;;;;;;7.68;1.38;;;;;;;37.81;23.39;99116.69;4956055;28;20019;-49
2022/07/05 06:32:38;;;;;;;6.40;1.52;;;;;;;37.88;23.29;99122.28;4953612;28;20067;-50
2022/07/05 06:35:05;;;;;;;4.95;1.40;;;;;;;37.89;23.17;99115.66;4955829;28;20542;-50
2022/07/05 06:37:53;;;;;;;31.92;3.80;;;;;;;37.97;23.39;99125.53;4955846;28;20031;-51
2022/07/05 06:40:29;;;;;;;6.68;1.60;;;;;;;38.21;23.42;99122.66;4955909;28;20031;-51
2022/07/05 06:42:57;;;;;;;15.25;2.15;;;;;;;38.50;22.54;99118.25;4954642;29;20031;-47
2022/07/05 06:45:25;;;;;;;4.55;1.73;;;;;;;38.83;22.51;99125.59;4954480;29;20115;-48
2022/07/05 06:47:58;;;;;;;11.18;1.50;;;;;;;38.46;22.64;99115.47;4954454;29;20035;-48
2022/07/05 06:50:29;;;;;;;14.87;2.07;;;;;;;38.57;22.52;99126.56;4955745;28;20023;-48
2022/07/05 06:52:55;;;;;;;8.88;1.70;;;;;;;38.85;22.30;99128.75;4955786;28;20027;-48
2022/07/05 06:55:21;;;;;;;7.63;1.50;;;;;;;39.32;21.39;99118.94;4954282;29;20031;-47
2022/07/05 06:57:47;;;;;;;4.60;1.38;;;;;;;39.82;20.73;99125.84;4955507;28;20023;-48
2022/07/05 07:00:14;;;;;;;10.73;1.85;;;;;;;40.06;20.63;99125.16;4955523;28;20061;-48
2022/07/05 07:02:40;;;;;;;5.35;1.50;;;;;;;40.38;20.05;99123.69;4954232;29;20541;-50
2022/07/05 07:05:07;;;;;;;8.98;1.50;;;;;;;40.00;20.83;99131.44;4955465;28;20158;-50
2022/07/05 07:10:18;;;;;;;114.25;8.68;;;;;;;40.17;21.04;99132.66;4954367;29;20034;-50
2022/07/05 07:12:43;;;;;;;3.58;1.30;;;;;;;40.42;20.36;99136.28;4954165;29;20023;-50
2022/07/05 07:15:10;;;;;;;56.67;4.65;;;;;;;40.83;20.21;99140.66;4954008;29;20039;-49
2022/07/05 07:17:35;;;;;;;9.00;2.17;;;;;;;40.89;19.73;99148.13;4953917;29;20442;-50
2022/07/05 07:20:01;;;;;;;8.73;1.38;;;;;;;40.83;19.79;99146.16;4955149;29;20090;-49
2022/07/05 07:22:27;;;;;;;8.60;1.23;;;;;;;40.66;19.72;99145.72;4953867;29;20505;-50
2022/07/05 07:24:53;;;;;;;15.40;2.33;;;;;;;40.10;20.40;99141.69;4955128;29;20027;-50
2022/07/05 07:27:19;;;;;;;17.27;2.20;;;;;;;39.50;20.96;99143.78;4955035;28;20061;-50
2022/07/05 07:29:45;;;;;;;10.40;1.30;;;;;;;39.44;20.98;99137.06;4955014;28;20058;-51
2022/07/05 07:32:11;;;;;;;12.63;2.25;;;;;;;39.31;21.10;99147.53;4953795;29;20026;-47
2022/07/05 07:34:37;;;;;;;9.48;2.45;;;;;;;38.96;21.81;99139.84;4954738;28;20053;-47
2022/07/05 07:37:04;;;;;;;11.73;1.60;;;;;;;38.47;21.89;99146.44;4954809;28;20110;-48
2022/07/05 07:39:33;;;;;;;19.33;2.05;;;;;;;38.14;22.28;99142.56;4954846;28;20026;-48
2022/07/05 07:41:59;;;;;;;12.70;2.00;;;;;;;37.72;23.54;99141.66;4953411;29;20024;-48
2022/07/05 07:44:25;;;;;;;54.38;5.20;;;;;;;37.33;23.34;99141.88;4954359;28;20034;-48
2022/07/05 07:46:51;;;;;;;27.75;2.80;;;;;;;37.41;23.67;99137.31;4954697;29;20034;-47
2022/07/05 07:49:17;;;;;;;21.67;2.22;;;;;;;37.58;23.19;99139.50;4954691;28;20402;-48
2022/07/05 07:51:42;;;;;;;10.07;1.50;;;;;;;38.14;23.00;99139.81;4954593;28;20054;-46
2022/07/05 07:54:09;;;;;;;3.53;1.02;;;;;;;38.64;21.93;99140.34;4954565;29;20154;-48
2022/07/05 07:56:34;;;;;;;12.10;1.77;;;;;;;39.40;21.80;99136.25;4954546;28;20110;-50
2022/07/05 07:59:00;;;;;;;10.27;1.67;;;;;;;39.96;21.07;99142.41;4954372;29;20094;-50
2022/07/05 08:01:26;;;;;;;38.50;4.18;;;;;;;40.33;20.56;99144.91;4954750;28;20027;-50
2022/07/05 08:03:52;;;;;;;5.68;1.05;;;;;;;40.94;20.07;99141.44;4954476;28;20023;-50
2022/07/05 08:06:18;;;;;;;5.30;1.25;;;;;;;41.52;19.49;99147.66;4953009;29;20066;-49
2022/07/05 08:08:44;;;;;;;13.77;2.25;;;;;;;41.86;18.82;99141.66;4954347;29;20390;-50
2022/07/05 08:11:12;;;;;;;8.25;1.73;;;;;;;41.89;18.70;99141.63;4954315;28;20031;-50
2022/07/05 08:13:39;;;;;;;10.48;1.50;;;;;;;41.77;19.03;99131.03;4954275;28;20102;-50
2022/07/05 08:16:05;;;;;;;29.80;2.13;;;;;;;41.87;19.34;99135.72;4954110;28;20035;-51
2022/07/05 08:21:37;;;;;;;7.03;1.27;;;;;;;42.80;18.27;99130.81;4954375;29;20515;-52
2022/07/05 08:24:06;;;;;;;15.98;2.20;;;;;;;43.08;17.64;99127.84;4954065;29;20035;-52
2022/07/05 08:26:32;;;;;;;8.98;1.45;;;;;;;42.77;18.31;99134.41;4952756;29;20451;-52
2022/07/05 08:28:59;;;;;;;6.28;1.70;;;;;;;42.44;18.44;99129.16;4952643;29;20062;-51
2022/07/05 08:31:27;;;;;;;11.68;1.42;;;;;;;42.88;18.30;99127.63;4954046;28;20058;-51
2022/07/05 08:33:52;;;;;;;5.47;1.27;;;;;;;43.02;17.41;99123.94;4953820;28;20047;-52
2022/07/05 08:36:18;;;;;;;3.35;1.55;;;;;;;42.99;17.57;99118.47;4953929;29;20106;-52
2022/07/05 08:38:44;;;;;;;6.68;1.10;;;;;;;43.29;17.42;99107.50;4952581;29;20031;-51
2022/07/05 08:41:11;;;;;;;6.68;1.40;;;;;;;43.40;17.48;99107.38;4953875;28;20060;-52
2022/07/05 08:43:40;;;;;;;6.93;1.27;;;;;;;43.12;17.55;99105.69;4952543;29;20062;-52
2022/07/05 08:46:09;;;;;;;6.43;1.42;;;;;;;43.22;17.69;99109.53;4952558;29;20023;-52
2022/07/05 08:48:43;;;;;;;7.93;1.60;;;;;;;43.27;17.29;99111.88;4952691;29;20494;-51
2022/07/05 08:51:21;;;;;;;13.40;1.60;;;;;;;43.43;17.25;99108.53;4953789;28;20042;-53
2022/07/05 08:53:50;;;;;;;8.07;1.60;;;;;;;43.34;17.08;99111.78;4952513;29;20528;-52
2022/07/05 08:56:17;;;;;;;10.52;1.52;;;;;;;43.64;17.05;99115.78;4953047;28;20107;-52
2022/07/05 08:58:43;;;;;;;4.50;1.42;;;;;;;43.94;16.61;99114.25;4952367;29;20059;-52
2022/07/05 09:01:10;;;;;;;7.60;1.92;;;;;;;43.99;16.04;99102.69;4952353;29;20020;-51
2022/07/05 09:03:50;;;;;;;3.03;1.40;;;;;;;43.59;16.89;99105.16;4953734;28;20059;-53
2022/07/05 09:06:25;;;;;;;9.75;1.90;;;;;;;43.38;17.04;99103.47;4953629;28;20027;-53
2022/07/05 09:08:54;;;;;;;4.80;1.20;;;;;;;43.07;16.67;99115.22;4952466;29;20493;-52
2022/07/05 09:11:24;;;;;;;9.02;2.03;;;;;;;42.62;17.38;99119.94;4953650;28;20049;-53
2022/07/05 09:13:50;;;;;;;7.32;1.33;;;;;;;42.73;16.93;99117.09;4952367;29;20035;-51
2022/07/05 09:16:16;;;;;;;4.07;1.10;;;;;;;42.47;17.42;99111.75;4953572;28;20118;-51
2022/07/05 09:18:51;;;;;;;8.43;1.30;;;;;;;42.58;16.83;99119.16;4952230;29;20086;-52
2022/07/05 09:21:25;;;;;;;9.45;1.30;;;;;;;42.86;16.60;99116.22;4952312;29;20039;-52
2022/07/05 09:23:56;;;;;;;7.80;1.40;;;;;;;42.95;16.36;99110.19;4953530;28;20027;-52
2022/07/05 09:26:43;;;;;;;9.88;1.38;;;;;;;42.95;16.64;99107.44;4952173;29;20020;-52
2022/07/05 09:29:18;;;;;;;3.92;0.88;;;;;;;43.34;16.29;99109.03;4952195;29;20023;-53
2022/07/05 09:31:50;;;;;;;7.35;1.38;;;;;;;43.49;15.77;99106.88;4953501;28;20393;-52
2022/07/05 09:34:18;;;;;;;4.53;1.13;;;;;;;43.35;15.64;99098.78;4953108;28;20043;-51
2022/07/05 09:36:58;;;;;;;6.90;1.17;;;;;;;42.88;16.63;99097.25;4953294;28;20637;-52
2022/07/05 09:39:29;;;;;;;3.70;0.80;;;;;;;42.51;16.63;99100.69;4953425;28;20031;-52
2022/07/05 09:42:11;;;;;;;8.70;2.17;;;;;;;42.75;16.19;99092.63;4952075;29;20020;-52
2022/07/05 09:44:45;;;;;;;5.45;1.00;;;;;;;42.44;15.65;99098.00;4953294;28;20023;-52
2022/07/05 09:47:12;;;;;;;9.45;1.48;;;;;;;42.05;16.67;99094.28;4967985;28;20126;-53
2022/07/05 09:49:44;;;;;;;8.07;2.83;;;;;;;41.89;16.03;99100.25;4952063;29;20119;-52
2022/07/05 09:52:11;;;;;;;13.57;1.50;;;;;;;41.86;16.59;99101.06;4936226;29;20047;-51
2022/07/05 09:54:37;;;;;;;12.50;2.00;;;;;;;42.19;16.62;99098.94;4953189;28;20031;-52
2022/07/05 09:57:03;;;;;;;4.50;1.13;;;;;;;42.24;15.96;99101.28;4953058;29;20104;-51
2022/07/05 09:59:29;;;;;;;5.68;1.00;;;;;;;42.07;15.84;99094.66;4951907;29;20034;-49
2022/07/05 10:01:54;;;;;;;6.93;0.80;;;;;;;41.73;15.91;99105.47;4951836;29;20024;-52
2022/07/05 10:04:20;;;;;;;7.88;1.55;;;;;;;41.51;15.93;99099.22;4953071;29;20102;-52
2022/07/05 10:06:46;;;;;;;5.05;1.00;;;;;;;40.94;16.32;99111.16;4954760;28;20019;-50
2022/07/05 10:09:14;;;;;;;5.57;1.17;;;;;;;40.89;16.16;99106.03;4956463;28;20078;-51
2022/07/05 10:11:42;;;;;;;4.53;1.10;;;;;;;41.01;16.12;99118.59;4956439;28;20051;-52
2022/07/05 10:14:15;;;;;;;9.63;1.23;;;;;;;41.21;16.47;99110.72;4955052;29;20449;-51
2022/07/05 10:16:51;;;;;;;5.80;1.30;;;;;;;41.18;15.67;99117.06;4955114;29;20046;-51
2022/07/05 10:19:20;;;;;;;7.32;0.80;;;;;;;40.99;16.06;99110.75;4956333;28;20035;-51
2022/07/05 10:21:47;;;;;;;12.13;1.63;;;;;;;41.03;16.16;99107.97;4956194;28;20489;-52
2022/07/05 10:24:16;;;;;;;6.75;0.65;;;;;;;41.34;15.83;99100.88;4956271;28;20490;-52
2022/07/05 10:26:42;;;;;;;11.85;1.35;;;;;;;41.27;15.67;99107.19;4956197;28;20509;-53
2022/07/05 10:29:09;;;;;;;6.70;0.52;;;;;;;41.50;15.86;99101.19;4954832;29;20042;-52
2022/07/05 10:31:36;;;;;;;5.97;1.13;;;;;;;41.32;15.90;99094.97;4954814;29;20027;-51
2022/07/05 10:34:07;;;;;;;4.47;0.88;;;;;;;41.03;15.59;99095.03;4954539;29;20036;-51
2022/07/05 10:36:34;;;;;;;8.77;1.10;;;;;;;41.14;15.75;99097.75;4954930;29;20038;-51
2022/07/05 10:39:01;;;;;;;3.17;0.90;;;;;;;41.23;15.53;99108.38;4955893;28;20552;-52
2022/07/05 10:41:29;;;;;;;8.35;0.88;;;;;;;41.52;15.71;99103.56;4955923;28;20039;-51
2022/07/05 10:43:55;;;;;;;6.03;0.88;;;;;;;41.58;15.56;99112.22;4954635;29;20063;-52
2022/07/05 10:46:38;;;;;;;2.78;0.82;;;;;;;41.21;15.53;99116.25;4955776;28;20024;-51
2022/07/05 10:49:13;;;;;;;7.03;0.90;;;;;;;40.92;15.50;99110.75;4955850;28;20027;-52
2022/07/05 10:51:39;;;;;;;5.88;1.63;;;;;;;40.89;15.49;99111.53;4955730;28;20517;-52
2022/07/05 10:54:05;;;;;;;5.28;0.90;;;;;;;40.71;15.50;99108.78;4955658;28;20055;-51
2022/07/05 10:56:31;;;;;;;4.93;1.30;;;;;;;40.70;15.82;99113.50;4955646;28;20070;-50
2022/07/05 10:59:12;;;;;;;6.55;0.95;;;;;;;40.63;15.76;99110.75;4954217;29;20027;-51
2022/07/05 11:01:41;;;;;;;4.35;0.80;;;;;;;40.44;15.93;99109.16;4955626;28;20039;-52
2022/07/05 11:04:15;;;;;;;4.90;0.70;;;;;;;40.23;15.90;99109.13;4955533;28;20082;-51
2022/07/05 11:06:49;;;;;;;4.88;0.88;;;;;;;39.91;16.24;99116.09;4955503;28;20066;-51
2022/07/05 11:09:17;;;;;;;15.00;1.48;;;;;;;40.17;15.81;99110.66;4954225;29;20034;-50
2022/07/05 11:11:47;;;;;;;5.78;1.08;;;;;;;40.53;15.74;99114.28;4955587;28;20027;-51
2022/07/05 11:14:22;;;;;;;4.63;0.82;;;;;;;40.71;15.90;99109.56;4955331;28;20420;-51
2022/07/05 11:17:09;;;;;;;4.88;1.10;;;;;;;40.77;15.76;99104.50;4955262;28;20041;-51
2022/07/05 11:19:55;;;;;;;6.45;1.52;;;;;;;40.92;16.24;99102.50;4954698;28;20030;-52
2022/07/05 11:22:21;;;;;;;6.57;0.90;;;;;;;40.82;16.26;99100.53;4954133;29;20175;-52
2022/07/05 11:24:47;;;;;;;9.18;1.23;;;;;;;40.52;16.04;99107.19;4953858;29;20614;-51
2022/07/05 11:27:13;;;;;;;7.38;1.00;;;;;;;40.34;16.13;99101.69;4953831;29;20051;-52
2022/07/05 11:29:49;;;;;;;6.90;0.90;;;;;;;40.05;16.15;99090.63;4953741;29;20054;-51
2022/07/05 11:32:17;;;;;;;10.45;1.20;;;;;;;39.81;16.55;99089.34;4953760;29;20110;-50
2022/07/05 11:34:45;;;;;;;7.63;1.00;;;;;;;39.83;16.59;99089.75;4954710;28;20450;-51
2022/07/05 11:37:14;;;;;;;9.00;1.75;;;;;;;39.95;17.04;99091.38;4955054;28;20378;-50